sensor_id;sensor_type;location;lat;lon;timestamp;temperature;humidity
2212;DHT22;48849;48.758;9.158;2022-12-18T00:02:02;-2.10;99.90
2212;DHT22;48849;48.758;9.158;2022-12-18T00:04:29;-2.00;99.90
2212;DHT22;48849;48.758;9.158;2022-12-18T00:06:56;-2.00;99.90
2212;DHT22;48849;48.758;9.158;2022-12-18T00:09:23;-2.00;99.90
2212;DHT22;48849;48.758;9.158;2022-12-18T00:11:51;-2.00;99.90
2212;DHT22;48849;48.758;9.158;2022-12-18T00:14:17;-2.00;99.90
2212;DHT22;48849;48.758;9.158;2022-12-18T00:16:45;-1.90;99.90
2212;DHT22;48849;48.758;9.158;2022-12-18T00:19:13;-1.80;99.90
2212;DHT22;48849;48.758;9.158;2022-12-18T00:21:41;-1.80;99.90
2212;DHT22;48849;48.758;9.158;2022-12-18T00:24:08;-1.90;99.90
2212;DHT22;48849;48.758;9.158;2022-12-18T00:26:36;-2.00;99.90
2212;DHT22;48849;48.758;9.158;2022-12-18T00:29:07;-2.00;99.90
2212;DHT22;48849;48.758;9.158;2022-12-18T00:31:36;-2.00;99.90
2212;DHT22;48849;48.758;9.158;2022-12-18T00:34:03;-1.90;99.90
2212;DHT22;48849;48.758;9.158;2022-12-18T00:36:31;-1.90;99.90
2212;DHT22;48849;48.758;9.158;2022-12-18T00:39:00;-1.80;99.90
2212;DHT22;48849;48.758;9.158;2022-12-18T00:41:27;-1.80;99.90
2212;DHT22;48849;48.758;9.158;2022-12-18T00:44:14;-1.80;99.90
2212;DHT22;48849;48.758;9.158;2022-12-18T00:46:42;-1.80;99.90
2212;DHT22;48849;48.758;9.158;2022-12-18T00:49:13;-1.80;99.90
2212;DHT22;48849;48.758;9.158;2022-12-18T00:51:40;-1.80;99.90
2212;DHT22;48849;48.758;9.158;2022-12-18T00:54:06;-1.80;99.90
2212;DHT22;48849;48.758;9.158;2022-12-18T00:56:35;-1.90;99.90
2212;DHT22;48849;48.758;9.158;2022-12-18T00:59:02;-1.90;99.90
2212;DHT22;48849;48.758;9.158;2022-12-18T01:01:30;-2.10;99.90
2212;DHT22;48849;48.758;9.158;2022-12-18T01:03:58;-2.20;99.90
2212;DHT22;48849;48.758;9.158;2022-12-18T01:06:25;-2.20;99.90
2212;DHT22;48849;48.758;9.158;2022-12-18T01:08:52;-2.10;99.90
2212;DHT22;48849;48.758;9.158;2022-12-18T01:11:20;-2.10;99.90
2212;DHT22;48849;48.758;9.158;2022-12-18T01:13:47;-2.00;99.90
2212;DHT22;48849;48.758;9.158;2022-12-18T01:16:15;-2.10;99.90
2212;DHT22;48849;48.758;9.158;2022-12-18T01:18:44;-2.10;99.90
2212;DHT22;48849;48.758;9.158;2022-12-18T01:21:13;-2.30;99.90
2212;DHT22;48849;48.758;9.158;2022-12-18T01:23:40;-2.20;99.90
2212;DHT22;48849;48.758;9.158;2022-12-18T01:26:08;-2.20;99.90
2212;DHT22;48849;48.758;9.158;2022-12-18T01:28:35;-2.10;99.90
2212;DHT22;48849;48.758;9.158;2022-12-18T01:31:14;-2.10;99.90
2212;DHT22;48849;48.758;9.158;2022-12-18T01:33:41;-2.00;99.90
2212;DHT22;48849;48.758;9.158;2022-12-18T01:36:14;-2.10;99.90
2212;DHT22;48849;48.758;9.158;2022-12-18T01:38:41;-2.20;99.90
2212;DHT22;48849;48.758;9.158;2022-12-18T01:41:09;-2.10;99.90
2212;DHT22;48849;48.758;9.158;2022-12-18T01:43:43;-2.00;99.90
2212;DHT22;48849;48.758;9.158;2022-12-18T01:46:10;-2.00;99.90
2212;DHT22;48849;48.758;9.158;2022-12-18T01:48:37;-2.00;99.90
2212;DHT22;48849;48.758;9.158;2022-12-18T01:51:06;-2.00;99.90
2212;DHT22;48849;48.758;9.158;2022-12-18T01:53:36;-2.00;99.90
2212;DHT22;48849;48.758;9.158;2022-12-18T01:56:03;-2.00;99.90
2212;DHT22;48849;48.758;9.158;2022-12-18T01:58:35;-2.10;99.90
2212;DHT22;48849;48.758;9.158;2022-12-18T02:01:03;-2.00;99.90
2212;DHT22;48849;48.758;9.158;2022-12-18T02:03:30;-2.00;99.90
2212;DHT22;48849;48.758;9.158;2022-12-18T02:06:00;-2.10;99.90
2212;DHT22;48849;48.758;9.158;2022-12-18T02:08:36;-2.10;99.90
2212;DHT22;48849;48.758;9.158;2022-12-18T02:11:08;-2.20;99.90
2212;DHT22;48849;48.758;9.158;2022-12-18T02:13:42;-2.10;99.90
2212;DHT22;48849;48.758;9.158;2022-12-18T02:16:17;-2.20;99.90
2212;DHT22;48849;48.758;9.158;2022-12-18T02:18:48;-2.20;99.90
2212;DHT22;48849;48.758;9.158;2022-12-18T02:21:24;-2.30;99.90
2212;DHT22;48849;48.758;9.158;2022-12-18T02:24:01;-2.30;99.90
2212;DHT22;48849;48.758;9.158;2022-12-18T02:26:35;-2.40;99.90
2212;DHT22;48849;48.758;9.158;2022-12-18T02:29:05;-2.50;99.90
2212;DHT22;48849;48.758;9.158;2022-12-18T02:31:38;-2.50;99.90
2212;DHT22;48849;48.758;9.158;2022-12-18T02:34:08;-2.50;99.90
2212;DHT22;48849;48.758;9.158;2022-12-18T02:36:38;-2.50;99.90
2212;DHT22;48849;48.758;9.158;2022-12-18T02:39:07;-2.40;99.90
2212;DHT22;48849;48.758;9.158;2022-12-18T02:41:37;-2.40;99.90
2212;DHT22;48849;48.758;9.158;2022-12-18T02:44:07;-2.50;99.90
2212;DHT22;48849;48.758;9.158;2022-12-18T02:46:37;-2.60;99.90
2212;DHT22;48849;48.758;9.158;2022-12-18T02:49:15;-2.70;99.90
2212;DHT22;48849;48.758;9.158;2022-12-18T02:51:50;-2.60;99.90
2212;DHT22;48849;48.758;9.158;2022-12-18T02:54:27;-2.60;99.90
2212;DHT22;48849;48.758;9.158;2022-12-18T02:57:09;-2.40;99.90
2212;DHT22;48849;48.758;9.158;2022-12-18T02:59:44;-2.30;99.90
2212;DHT22;48849;48.758;9.158;2022-12-18T03:02:18;-2.40;99.90
2212;DHT22;48849;48.758;9.158;2022-12-18T03:04:50;-2.30;99.90
2212;DHT22;48849;48.758;9.158;2022-12-18T03:07:23;-2.40;99.90
2212;DHT22;48849;48.758;9.158;2022-12-18T03:09:54;-2.40;99.90
2212;DHT22;48849;48.758;9.158;2022-12-18T03:12:28;-2.30;99.90
2212;DHT22;48849;48.758;9.158;2022-12-18T03:14:59;-2.20;99.90
2212;DHT22;48849;48.758;9.158;2022-12-18T03:17:31;-2.20;99.90
2212;DHT22;48849;48.758;9.158;2022-12-18T03:20:02;-2.30;99.90
2212;DHT22;48849;48.758;9.158;2022-12-18T03:22:32;-2.30;99.90
2212;DHT22;48849;48.758;9.158;2022-12-18T03:25:02;-2.30;99.90
2212;DHT22;48849;48.758;9.158;2022-12-18T03:27:33;-2.20;99.90
2212;DHT22;48849;48.758;9.158;2022-12-18T03:30:03;-2.30;99.90
2212;DHT22;48849;48.758;9.158;2022-12-18T03:32:38;-2.40;99.90
2212;DHT22;48849;48.758;9.158;2022-12-18T03:35:08;-2.60;99.90
2212;DHT22;48849;48.758;9.158;2022-12-18T03:37:36;-2.60;99.90
2212;DHT22;48849;48.758;9.158;2022-12-18T03:40:04;-2.50;99.90
2212;DHT22;48849;48.758;9.158;2022-12-18T03:42:39;-2.50;99.90
2212;DHT22;48849;48.758;9.158;2022-12-18T03:45:12;-2.50;99.90
2212;DHT22;48849;48.758;9.158;2022-12-18T03:47:45;-2.50;99.90
2212;DHT22;48849;48.758;9.158;2022-12-18T03:50:16;-2.50;99.90
2212;DHT22;48849;48.758;9.158;2022-12-18T03:52:49;-2.60;99.90
2212;DHT22;48849;48.758;9.158;2022-12-18T03:55:18;-2.60;99.90
2212;DHT22;48849;48.758;9.158;2022-12-18T03:57:48;-2.50;99.90
2212;DHT22;48849;48.758;9.158;2022-12-18T04:00:18;-2.40;99.90
2212;DHT22;48849;48.758;9.158;2022-12-18T04:02:49;-2.40;99.90
2212;DHT22;48849;48.758;9.158;2022-12-18T04:05:17;-2.40;99.90
2212;DHT22;48849;48.758;9.158;2022-12-18T04:07:45;-2.40;99.90
2212;DHT22;48849;48.758;9.158;2022-12-18T04:10:14;-2.50;99.90
2212;DHT22;48849;48.758;9.158;2022-12-18T04:12:42;-2.50;99.90
2212;DHT22;48849;48.758;9.158;2022-12-18T04:15:12;-2.50;99.90
2212;DHT22;48849;48.758;9.158;2022-12-18T04:17:41;-2.50;99.90
2212;DHT22;48849;48.758;9.158;2022-12-18T04:20:10;-2.60;99.90
2212;DHT22;48849;48.758;9.158;2022-12-18T04:22:36;-2.70;99.90
2212;DHT22;48849;48.758;9.158;2022-12-18T04:25:04;-2.70;99.90
2212;DHT22;48849;48.758;9.158;2022-12-18T04:27:31;-2.90;99.90
2212;DHT22;48849;48.758;9.158;2022-12-18T04:29:57;-2.90;99.90
2212;DHT22;48849;48.758;9.158;2022-12-18T04:32:25;-3.20;99.90
2212;DHT22;48849;48.758;9.158;2022-12-18T04:34:52;-3.10;99.90
2212;DHT22;48849;48.758;9.158;2022-12-18T04:37:19;-2.90;99.90
2212;DHT22;48849;48.758;9.158;2022-12-18T04:39:46;-3.20;99.90
2212;DHT22;48849;48.758;9.158;2022-12-18T04:42:13;-3.00;99.90
2212;DHT22;48849;48.758;9.158;2022-12-18T04:44:40;-3.10;99.90
2212;DHT22;48849;48.758;9.158;2022-12-18T04:47:06;-3.10;99.90
2212;DHT22;48849;48.758;9.158;2022-12-18T04:49:35;-3.10;99.90
2212;DHT22;48849;48.758;9.158;2022-12-18T04:52:01;-3.10;99.90
2212;DHT22;48849;48.758;9.158;2022-12-18T04:54:28;-3.10;99.90
2212;DHT22;48849;48.758;9.158;2022-12-18T04:56:55;-3.10;99.90
2212;DHT22;48849;48.758;9.158;2022-12-18T04:59:22;-3.20;99.90
2212;DHT22;48849;48.758;9.158;2022-12-18T05:01:48;-3.10;99.90
2212;DHT22;48849;48.758;9.158;2022-12-18T05:04:15;-3.20;99.90
2212;DHT22;48849;48.758;9.158;2022-12-18T05:06:43;-3.30;99.90
2212;DHT22;48849;48.758;9.158;2022-12-18T05:09:10;-3.20;99.90
2212;DHT22;48849;48.758;9.158;2022-12-18T05:11:36;-3.30;99.90
2212;DHT22;48849;48.758;9.158;2022-12-18T05:14:03;-3.10;99.90
2212;DHT22;48849;48.758;9.158;2022-12-18T05:16:30;-3.10;99.90
2212;DHT22;48849;48.758;9.158;2022-12-18T05:18:57;-3.10;99.90
2212;DHT22;48849;48.758;9.158;2022-12-18T05:21:23;-3.20;99.90
2212;DHT22;48849;48.758;9.158;2022-12-18T05:23:51;-3.40;99.90
2212;DHT22;48849;48.758;9.158;2022-12-18T05:26:18;-3.40;99.90
2212;DHT22;48849;48.758;9.158;2022-12-18T05:28:45;-3.40;99.90
2212;DHT22;48849;48.758;9.158;2022-12-18T05:31:12;-3.40;99.90
2212;DHT22;48849;48.758;9.158;2022-12-18T05:33:39;-3.30;99.90
2212;DHT22;48849;48.758;9.158;2022-12-18T05:36:08;-3.30;99.90
2212;DHT22;48849;48.758;9.158;2022-12-18T05:38:37;-3.20;99.90
2212;DHT22;48849;48.758;9.158;2022-12-18T05:41:06;-3.30;99.90
2212;DHT22;48849;48.758;9.158;2022-12-18T05:43:34;-3.60;99.90
2212;DHT22;48849;48.758;9.158;2022-12-18T05:46:04;-3.70;99.90
2212;DHT22;48849;48.758;9.158;2022-12-18T05:48:31;-3.70;99.90
2212;DHT22;48849;48.758;9.158;2022-12-18T05:51:03;-3.60;99.90
2212;DHT22;48849;48.758;9.158;2022-12-18T05:53:31;-3.70;99.90
2212;DHT22;48849;48.758;9.158;2022-12-18T05:56:00;-3.70;99.90
2212;DHT22;48849;48.758;9.158;2022-12-18T05:58:28;-3.70;99.90
2212;DHT22;48849;48.758;9.158;2022-12-18T06:00:55;-3.70;99.90
2212;DHT22;48849;48.758;9.158;2022-12-18T06:03:22;-3.60;99.90
2212;DHT22;48849;48.758;9.158;2022-12-18T06:05:49;-3.60;99.90
2212;DHT22;48849;48.758;9.158;2022-12-18T06:08:15;-3.60;99.90
2212;DHT22;48849;48.758;9.158;2022-12-18T06:10:45;-3.80;99.90
2212;DHT22;48849;48.758;9.158;2022-12-18T06:13:16;-3.70;99.90
2212;DHT22;48849;48.758;9.158;2022-12-18T06:15:44;-3.60;99.90
2212;DHT22;48849;48.758;9.158;2022-12-18T06:18:11;-3.60;99.90
2212;DHT22;48849;48.758;9.158;2022-12-18T06:20:38;-3.50;99.90
2212;DHT22;48849;48.758;9.158;2022-12-18T06:23:05;-3.50;99.90
2212;DHT22;48849;48.758;9.158;2022-12-18T06:25:32;-3.70;99.90
2212;DHT22;48849;48.758;9.158;2022-12-18T06:27:59;-3.60;99.90
2212;DHT22;48849;48.758;9.158;2022-12-18T06:30:26;-3.70;99.90
2212;DHT22;48849;48.758;9.158;2022-12-18T06:32:54;-3.70;99.90
2212;DHT22;48849;48.758;9.158;2022-12-18T06:35:20;-4.20;99.90
2212;DHT22;48849;48.758;9.158;2022-12-18T06:37:47;-4.10;99.90
2212;DHT22;48849;48.758;9.158;2022-12-18T06:40:14;-3.90;99.90
2212;DHT22;48849;48.758;9.158;2022-12-18T06:42:41;-3.80;99.90
2212;DHT22;48849;48.758;9.158;2022-12-18T06:45:08;-3.80;99.90
2212;DHT22;48849;48.758;9.158;2022-12-18T06:47:35;-3.80;99.90
2212;DHT22;48849;48.758;9.158;2022-12-18T06:50:03;-4.00;99.90
2212;DHT22;48849;48.758;9.158;2022-12-18T06:52:31;-4.00;99.90
2212;DHT22;48849;48.758;9.158;2022-12-18T06:54:58;-4.10;99.90
2212;DHT22;48849;48.758;9.158;2022-12-18T06:57:25;-4.00;99.90
2212;DHT22;48849;48.758;9.158;2022-12-18T06:59:52;-3.90;99.90
2212;DHT22;48849;48.758;9.158;2022-12-18T07:02:19;-3.90;99.90
2212;DHT22;48849;48.758;9.158;2022-12-18T07:04:45;-4.00;99.90
2212;DHT22;48849;48.758;9.158;2022-12-18T07:07:16;-3.90;99.90
2212;DHT22;48849;48.758;9.158;2022-12-18T07:09:42;-4.00;99.90
2212;DHT22;48849;48.758;9.158;2022-12-18T07:12:09;-3.90;99.90
2212;DHT22;48849;48.758;9.158;2022-12-18T07:14:36;-3.80;99.90
2212;DHT22;48849;48.758;9.158;2022-12-18T07:17:03;-3.80;99.90
2212;DHT22;48849;48.758;9.158;2022-12-18T07:19:30;-3.80;99.90
2212;DHT22;48849;48.758;9.158;2022-12-18T07:21:56;-3.70;99.90
2212;DHT22;48849;48.758;9.158;2022-12-18T07:24:24;-3.70;99.90
2212;DHT22;48849;48.758;9.158;2022-12-18T07:26:51;-3.70;99.90
2212;DHT22;48849;48.758;9.158;2022-12-18T07:29:18;-3.70;99.90
2212;DHT22;48849;48.758;9.158;2022-12-18T07:31:45;-3.60;99.90
2212;DHT22;48849;48.758;9.158;2022-12-18T07:34:12;-3.60;99.90
2212;DHT22;48849;48.758;9.158;2022-12-18T07:36:39;-3.70;99.90
2212;DHT22;48849;48.758;9.158;2022-12-18T07:39:05;-3.70;99.90
2212;DHT22;48849;48.758;9.158;2022-12-18T07:41:34;-3.70;99.90
2212;DHT22;48849;48.758;9.158;2022-12-18T07:44:00;-3.60;99.90
2212;DHT22;48849;48.758;9.158;2022-12-18T07:46:27;-3.50;99.90
2212;DHT22;48849;48.758;9.158;2022-12-18T07:48:54;-3.50;99.90
2212;DHT22;48849;48.758;9.158;2022-12-18T07:51:20;-3.50;99.90
2212;DHT22;48849;48.758;9.158;2022-12-18T07:53:47;-3.40;99.90
2212;DHT22;48849;48.758;9.158;2022-12-18T07:56:14;-3.40;99.90
2212;DHT22;48849;48.758;9.158;2022-12-18T07:58:42;-3.30;99.90
2212;DHT22;48849;48.758;9.158;2022-12-18T08:01:11;-3.40;99.90
2212;DHT22;48849;48.758;9.158;2022-12-18T08:03:39;-3.50;99.90
2212;DHT22;48849;48.758;9.158;2022-12-18T08:06:08;-3.40;99.90
2212;DHT22;48849;48.758;9.158;2022-12-18T08:08:35;-3.60;99.90
2212;DHT22;48849;48.758;9.158;2022-12-18T08:11:02;-3.70;99.90
2212;DHT22;48849;48.758;9.158;2022-12-18T08:13:29;-3.60;99.90
2212;DHT22;48849;48.758;9.158;2022-12-18T08:15:58;-3.60;99.90
2212;DHT22;48849;48.758;9.158;2022-12-18T08:18:25;-3.40;99.90
2212;DHT22;48849;48.758;9.158;2022-12-18T08:20:52;-3.40;99.90
2212;DHT22;48849;48.758;9.158;2022-12-18T08:23:19;-3.40;99.90
2212;DHT22;48849;48.758;9.158;2022-12-18T08:25:45;-3.40;99.90
2212;DHT22;48849;48.758;9.158;2022-12-18T08:28:12;-3.30;99.90
2212;DHT22;48849;48.758;9.158;2022-12-18T08:30:41;-3.20;99.90
2212;DHT22;48849;48.758;9.158;2022-12-18T08:33:09;-3.10;99.90
2212;DHT22;48849;48.758;9.158;2022-12-18T08:35:36;-3.10;99.90
2212;DHT22;48849;48.758;9.158;2022-12-18T08:38:03;-3.00;99.90
2212;DHT22;48849;48.758;9.158;2022-12-18T08:40:30;-3.00;99.90
2212;DHT22;48849;48.758;9.158;2022-12-18T08:42:57;-2.90;99.90
2212;DHT22;48849;48.758;9.158;2022-12-18T08:45:41;-2.80;99.90
2212;DHT22;48849;48.758;9.158;2022-12-18T08:48:09;-2.80;99.90
2212;DHT22;48849;48.758;9.158;2022-12-18T08:50:36;-2.90;99.90
2212;DHT22;48849;48.758;9.158;2022-12-18T08:53:03;-2.80;99.90
2212;DHT22;48849;48.758;9.158;2022-12-18T08:55:29;-2.70;99.90
2212;DHT22;48849;48.758;9.158;2022-12-18T08:57:56;-2.70;99.90
2212;DHT22;48849;48.758;9.158;2022-12-18T09:00:23;-2.70;99.90
2212;DHT22;48849;48.758;9.158;2022-12-18T09:02:50;-2.60;99.90
2212;DHT22;48849;48.758;9.158;2022-12-18T09:05:18;-2.50;99.90
2212;DHT22;48849;48.758;9.158;2022-12-18T09:07:45;-2.50;99.90
2212;DHT22;48849;48.758;9.158;2022-12-18T09:10:11;-2.50;99.90
2212;DHT22;48849;48.758;9.158;2022-12-18T09:12:38;-2.40;99.90
2212;DHT22;48849;48.758;9.158;2022-12-18T09:15:06;-2.30;99.90
2212;DHT22;48849;48.758;9.158;2022-12-18T09:17:32;-2.30;99.90
2212;DHT22;48849;48.758;9.158;2022-12-18T09:19:59;-2.30;99.90
2212;DHT22;48849;48.758;9.158;2022-12-18T09:22:27;-2.20;99.90
2212;DHT22;48849;48.758;9.158;2022-12-18T09:24:54;-2.10;99.90
2212;DHT22;48849;48.758;9.158;2022-12-18T09:27:21;-2.10;99.90
2212;DHT22;48849;48.758;9.158;2022-12-18T09:29:47;-2.10;99.90
2212;DHT22;48849;48.758;9.158;2022-12-18T09:32:14;-2.10;99.90
2212;DHT22;48849;48.758;9.158;2022-12-18T09:34:41;-2.10;99.90
2212;DHT22;48849;48.758;9.158;2022-12-18T09:37:07;-2.00;99.90
2212;DHT22;48849;48.758;9.158;2022-12-18T09:39:35;-2.00;99.90
2212;DHT22;48849;48.758;9.158;2022-12-18T09:42:02;-1.90;99.90
2212;DHT22;48849;48.758;9.158;2022-12-18T09:44:32;-1.80;99.90
2212;DHT22;48849;48.758;9.158;2022-12-18T09:47:11;-1.80;99.90
2212;DHT22;48849;48.758;9.158;2022-12-18T09:49:42;-1.80;99.90
2212;DHT22;48849;48.758;9.158;2022-12-18T09:52:14;-1.80;99.90
2212;DHT22;48849;48.758;9.158;2022-12-18T09:54:46;-1.70;99.90
2212;DHT22;48849;48.758;9.158;2022-12-18T09:57:16;-1.70;99.90
2212;DHT22;48849;48.758;9.158;2022-12-18T09:59:47;-1.70;99.90
2212;DHT22;48849;48.758;9.158;2022-12-18T10:02:17;-1.70;99.90
2212;DHT22;48849;48.758;9.158;2022-12-18T10:04:52;-1.70;99.90
2212;DHT22;48849;48.758;9.158;2022-12-18T10:07:26;-1.70;99.90
2212;DHT22;48849;48.758;9.158;2022-12-18T10:10:02;-1.60;99.90
2212;DHT22;48849;48.758;9.158;2022-12-18T10:12:34;-1.40;99.90
2212;DHT22;48849;48.758;9.158;2022-12-18T10:15:12;-1.40;99.90
2212;DHT22;48849;48.758;9.158;2022-12-18T10:17:46;-1.40;99.90
2212;DHT22;48849;48.758;9.158;2022-12-18T10:20:18;-1.30;99.90
2212;DHT22;48849;48.758;9.158;2022-12-18T10:22:53;-1.20;99.90
2212;DHT22;48849;48.758;9.158;2022-12-18T10:25:25;-1.10;99.90
2212;DHT22;48849;48.758;9.158;2022-12-18T10:27:57;-1.00;99.90
2212;DHT22;48849;48.758;9.158;2022-12-18T10:30:26;-0.90;99.90
2212;DHT22;48849;48.758;9.158;2022-12-18T10:32:53;-0.80;99.90
2212;DHT22;48849;48.758;9.158;2022-12-18T10:35:23;-0.80;99.90
2212;DHT22;48849;48.758;9.158;2022-12-18T10:38:02;-0.70;99.90
2212;DHT22;48849;48.758;9.158;2022-12-18T10:40:31;-0.70;99.90
2212;DHT22;48849;48.758;9.158;2022-12-18T10:43:04;-0.70;99.90
2212;DHT22;48849;48.758;9.158;2022-12-18T10:45:31;-0.60;99.90
2212;DHT22;48849;48.758;9.158;2022-12-18T10:47:58;-0.50;99.90
2212;DHT22;48849;48.758;9.158;2022-12-18T10:50:29;-0.50;99.90
2212;DHT22;48849;48.758;9.158;2022-12-18T10:52:59;-0.40;99.90
2212;DHT22;48849;48.758;9.158;2022-12-18T10:55:32;-0.40;99.90
2212;DHT22;48849;48.758;9.158;2022-12-18T10:58:16;-0.30;99.90
2212;DHT22;48849;48.758;9.158;2022-12-18T11:00:43;-0.30;99.90
2212;DHT22;48849;48.758;9.158;2022-12-18T11:03:29;-0.20;99.90
2212;DHT22;48849;48.758;9.158;2022-12-18T11:06:03;-0.20;99.90
2212;DHT22;48849;48.758;9.158;2022-12-18T11:08:29;-0.10;99.90
2212;DHT22;48849;48.758;9.158;2022-12-18T11:10:58;-0.10;99.90
2212;DHT22;48849;48.758;9.158;2022-12-18T11:13:26;-0.10;99.90
2212;DHT22;48849;48.758;9.158;2022-12-18T11:15:54;-0.10;99.90
2212;DHT22;48849;48.758;9.158;2022-12-18T11:18:26;0.00;99.90
2212;DHT22;48849;48.758;9.158;2022-12-18T11:20:54;0.00;99.90
2212;DHT22;48849;48.758;9.158;2022-12-18T11:23:23;0.10;99.90
2212;DHT22;48849;48.758;9.158;2022-12-18T11:25:52;0.10;99.90
2212;DHT22;48849;48.758;9.158;2022-12-18T11:28:35;0.20;99.90
2212;DHT22;48849;48.758;9.158;2022-12-18T11:31:21;0.20;99.90
2212;DHT22;48849;48.758;9.158;2022-12-18T11:33:54;0.20;99.90
2212;DHT22;48849;48.758;9.158;2022-12-18T11:36:23;0.30;99.90
2212;DHT22;48849;48.758;9.158;2022-12-18T11:38:52;0.30;99.90
2212;DHT22;48849;48.758;9.158;2022-12-18T11:41:24;0.30;99.90
2212;DHT22;48849;48.758;9.158;2022-12-18T11:44:18;0.30;99.90
2212;DHT22;48849;48.758;9.158;2022-12-18T11:46:52;0.30;99.90
2212;DHT22;48849;48.758;9.158;2022-12-18T11:49:25;0.40;99.90
2212;DHT22;48849;48.758;9.158;2022-12-18T11:51:57;0.40;99.90
2212;DHT22;48849;48.758;9.158;2022-12-18T11:54:25;0.50;99.90
2212;DHT22;48849;48.758;9.158;2022-12-18T11:56:56;0.50;99.90
2212;DHT22;48849;48.758;9.158;2022-12-18T11:59:33;0.50;99.90
2212;DHT22;48849;48.758;9.158;2022-12-18T12:02:16;0.50;99.90
2212;DHT22;48849;48.758;9.158;2022-12-18T12:04:55;0.60;99.90
2212;DHT22;48849;48.758;9.158;2022-12-18T12:07:36;0.60;99.90
2212;DHT22;48849;48.758;9.158;2022-12-18T12:10:16;0.50;99.90
2212;DHT22;48849;48.758;9.158;2022-12-18T12:13:00;0.50;99.90
2212;DHT22;48849;48.758;9.158;2022-12-18T12:15:37;0.50;99.90
2212;DHT22;48849;48.758;9.158;2022-12-18T12:18:14;0.50;99.90
2212;DHT22;48849;48.758;9.158;2022-12-18T12:20:49;0.60;99.90
2212;DHT22;48849;48.758;9.158;2022-12-18T12:23:26;0.50;99.90
2212;DHT22;48849;48.758;9.158;2022-12-18T12:25:58;0.60;99.90
2212;DHT22;48849;48.758;9.158;2022-12-18T12:28:41;0.60;99.90
2212;DHT22;48849;48.758;9.158;2022-12-18T12:31:18;0.70;99.90
2212;DHT22;48849;48.758;9.158;2022-12-18T12:33:52;0.70;99.90
2212;DHT22;48849;48.758;9.158;2022-12-18T12:36:30;0.70;99.90
2212;DHT22;48849;48.758;9.158;2022-12-18T12:39:03;0.70;99.90
2212;DHT22;48849;48.758;9.158;2022-12-18T12:41:34;0.70;99.90
2212;DHT22;48849;48.758;9.158;2022-12-18T12:44:24;0.70;99.90
2212;DHT22;48849;48.758;9.158;2022-12-18T12:46:57;0.60;99.90
2212;DHT22;48849;48.758;9.158;2022-12-18T12:49:28;0.60;99.90
2212;DHT22;48849;48.758;9.158;2022-12-18T12:52:03;0.60;99.90
2212;DHT22;48849;48.758;9.158;2022-12-18T12:54:32;0.60;99.90
2212;DHT22;48849;48.758;9.158;2022-12-18T12:57:04;0.60;99.90
2212;DHT22;48849;48.758;9.158;2022-12-18T12:59:39;0.70;99.90
2212;DHT22;48849;48.758;9.158;2022-12-18T13:02:18;0.70;99.90
2212;DHT22;48849;48.758;9.158;2022-12-18T13:04:49;0.70;99.90
2212;DHT22;48849;48.758;9.158;2022-12-18T13:07:23;0.70;99.90
2212;DHT22;48849;48.758;9.158;2022-12-18T13:10:24;0.70;99.90
2212;DHT22;48849;48.758;9.158;2022-12-18T13:12:55;0.70;99.90
2212;DHT22;48849;48.758;9.158;2022-12-18T13:15:22;0.70;99.90
2212;DHT22;48849;48.758;9.158;2022-12-18T13:18:11;0.80;99.90
2212;DHT22;48849;48.758;9.158;2022-12-18T13:20:43;0.70;99.90
2212;DHT22;48849;48.758;9.158;2022-12-18T13:23:35;0.80;99.90
2212;DHT22;48849;48.758;9.158;2022-12-18T13:29:04;0.80;99.90
2212;DHT22;48849;48.758;9.158;2022-12-18T13:34:30;0.80;99.90
2212;DHT22;48849;48.758;9.158;2022-12-18T13:40:06;0.90;99.90
2212;DHT22;48849;48.758;9.158;2022-12-18T13:42:49;0.90;99.90
2212;DHT22;48849;48.758;9.158;2022-12-18T13:45:48;0.90;99.90
2212;DHT22;48849;48.758;9.158;2022-12-18T13:48:18;0.90;99.90
2212;DHT22;48849;48.758;9.158;2022-12-18T13:50:53;0.90;99.90
2212;DHT22;48849;48.758;9.158;2022-12-18T13:53:23;0.90;99.90
2212;DHT22;48849;48.758;9.158;2022-12-18T13:55:50;0.90;99.90
2212;DHT22;48849;48.758;9.158;2022-12-18T13:58:17;0.90;99.90
2212;DHT22;48849;48.758;9.158;2022-12-18T14:00:44;1.20;99.90
2212;DHT22;48849;48.758;9.158;2022-12-18T14:03:20;1.00;99.90
2212;DHT22;48849;48.758;9.158;2022-12-18T14:05:54;1.00;99.90
2212;DHT22;48849;48.758;9.158;2022-12-18T14:08:23;1.10;99.90
2212;DHT22;48849;48.758;9.158;2022-12-18T14:10:51;1.10;99.90
2212;DHT22;48849;48.758;9.158;2022-12-18T14:13:23;1.10;99.90
2212;DHT22;48849;48.758;9.158;2022-12-18T14:15:51;1.10;99.90
2212;DHT22;48849;48.758;9.158;2022-12-18T14:18:22;1.10;99.90
2212;DHT22;48849;48.758;9.158;2022-12-18T14:20:50;1.10;99.90
2212;DHT22;48849;48.758;9.158;2022-12-18T14:23:31;1.10;99.90
2212;DHT22;48849;48.758;9.158;2022-12-18T14:25:59;1.10;99.90
2212;DHT22;48849;48.758;9.158;2022-12-18T14:28:26;1.10;99.90
2212;DHT22;48849;48.758;9.158;2022-12-18T14:30:54;1.10;99.90
2212;DHT22;48849;48.758;9.158;2022-12-18T14:33:23;1.10;99.90
2212;DHT22;48849;48.758;9.158;2022-12-18T14:35:56;1.20;99.90
2212;DHT22;48849;48.758;9.158;2022-12-18T14:38:29;1.20;99.90
2212;DHT22;48849;48.758;9.158;2022-12-18T14:40:58;1.30;99.90
2212;DHT22;48849;48.758;9.158;2022-12-18T14:43:25;1.30;99.90
2212;DHT22;48849;48.758;9.158;2022-12-18T14:45:52;1.30;99.90
2212;DHT22;48849;48.758;9.158;2022-12-18T14:48:21;1.20;99.90
2212;DHT22;48849;48.758;9.158;2022-12-18T14:50:59;1.20;99.90
2212;DHT22;48849;48.758;9.158;2022-12-18T14:53:36;1.20;99.90
2212;DHT22;48849;48.758;9.158;2022-12-18T14:56:10;1.20;99.90
2212;DHT22;48849;48.758;9.158;2022-12-18T14:58:45;1.20;99.90
2212;DHT22;48849;48.758;9.158;2022-12-18T15:01:21;1.10;99.90
2212;DHT22;48849;48.758;9.158;2022-12-18T15:03:49;1.20;99.90
2212;DHT22;48849;48.758;9.158;2022-12-18T15:06:23;1.20;99.90
2212;DHT22;48849;48.758;9.158;2022-12-18T15:08:53;1.10;99.90
2212;DHT22;48849;48.758;9.158;2022-12-18T15:11:26;1.10;99.90
2212;DHT22;48849;48.758;9.158;2022-12-18T15:13:53;1.10;99.90
2212;DHT22;48849;48.758;9.158;2022-12-18T15:16:20;1.00;99.90
2212;DHT22;48849;48.758;9.158;2022-12-18T15:18:47;1.00;99.90
2212;DHT22;48849;48.758;9.158;2022-12-18T15:21:18;1.10;99.90
2212;DHT22;48849;48.758;9.158;2022-12-18T15:23:47;1.00;99.90
2212;DHT22;48849;48.758;9.158;2022-12-18T15:26:17;1.00;99.90
2212;DHT22;48849;48.758;9.158;2022-12-18T15:28:46;1.00;99.90
2212;DHT22;48849;48.758;9.158;2022-12-18T15:31:29;1.00;99.90
2212;DHT22;48849;48.758;9.158;2022-12-18T15:34:10;0.90;99.90
2212;DHT22;48849;48.758;9.158;2022-12-18T15:36:37;0.90;99.90
2212;DHT22;48849;48.758;9.158;2022-12-18T15:39:05;0.90;99.90
2212;DHT22;48849;48.758;9.158;2022-12-18T15:41:34;0.90;99.90
2212;DHT22;48849;48.758;9.158;2022-12-18T15:44:01;0.80;99.90
2212;DHT22;48849;48.758;9.158;2022-12-18T15:46:27;0.80;99.90
2212;DHT22;48849;48.758;9.158;2022-12-18T15:48:55;0.80;99.90
2212;DHT22;48849;48.758;9.158;2022-12-18T15:51:24;0.80;99.90
2212;DHT22;48849;48.758;9.158;2022-12-18T15:53:54;0.70;99.90
2212;DHT22;48849;48.758;9.158;2022-12-18T15:56:21;0.80;99.90
2212;DHT22;48849;48.758;9.158;2022-12-18T15:59:10;0.80;99.90
2212;DHT22;48849;48.758;9.158;2022-12-18T16:01:38;0.80;99.90
2212;DHT22;48849;48.758;9.158;2022-12-18T16:04:05;0.80;99.90
2212;DHT22;48849;48.758;9.158;2022-12-18T16:06:32;0.80;99.90
2212;DHT22;48849;48.758;9.158;2022-12-18T16:08:58;0.80;99.90
2212;DHT22;48849;48.758;9.158;2022-12-18T16:11:27;0.80;99.90
2212;DHT22;48849;48.758;9.158;2022-12-18T16:14:16;0.80;99.90
2212;DHT22;48849;48.758;9.158;2022-12-18T16:16:43;0.70;99.90
2212;DHT22;48849;48.758;9.158;2022-12-18T16:19:10;0.80;99.90